createdAt,value
2017-06-16T00:00:29.768Z,0
2017-06-16T00:01:29.751Z,0
2017-06-16T00:02:29.749Z,0
2017-06-16T00:03:29.742Z,0
2017-06-16T00:04:29.725Z,0
2017-06-16T00:05:29.718Z,0
2017-06-16T00:06:29.706Z,0
2017-06-16T00:07:29.698Z,0
2017-06-16T00:08:29.679Z,0
2017-06-16T00:09:29.676Z,0
2017-06-16T00:10:29.670Z,0
2017-06-16T00:11:29.665Z,0
2017-06-16T00:12:29.651Z,0
2017-06-16T00:13:29.336Z,0
2017-06-16T00:14:29.628Z,0
2017-06-16T00:15:29.617Z,0
2017-06-16T00:16:29.612Z,0
2017-06-16T00:17:29.598Z,0
2017-06-16T00:18:29.591Z,0
2017-06-16T00:19:29.582Z,0
2017-06-16T00:20:29.569Z,0
2017-06-16T00:21:29.562Z,0
2017-06-16T00:22:29.549Z,0
2017-06-16T00:23:29.543Z,0
2017-06-16T00:24:29.529Z,0
2017-06-16T00:25:29.523Z,0
2017-06-16T00:26:29.505Z,0
2017-06-16T00:27:29.499Z,0
2017-06-16T00:28:29.191Z,0
2017-06-16T00:29:29.483Z,0
2017-06-16T00:30:29.466Z,0
2017-06-16T00:31:29.459Z,0
2017-06-16T00:32:29.449Z,0
2017-06-16T00:33:29.650Z,0
2017-06-16T00:34:29.328Z,0
2017-06-16T00:35:29.429Z,0
2017-06-16T00:36:29.407Z,0
2017-06-16T00:37:29.395Z,0
2017-06-16T00:38:29.391Z,0
2017-06-16T00:39:29.378Z,0
2017-06-16T00:40:29.369Z,0
2017-06-16T00:41:29.360Z,0
2017-06-16T00:42:29.346Z,0
2017-06-16T00:43:29.335Z,0
2017-06-16T00:44:28.729Z,0
2017-06-16T00:45:29.313Z,0
2017-06-16T00:46:29.311Z,0
2017-06-16T00:47:29.301Z,0
2017-06-16T00:48:29.283Z,0
2017-06-16T00:49:28.978Z,0
2017-06-16T00:50:28.965Z,0
2017-06-16T00:51:29.252Z,0
2017-06-16T00:52:28.949Z,0
2017-06-16T00:53:29.241Z,0
2017-06-16T00:54:29.228Z,0
2017-06-16T00:55:28.914Z,0
2017-06-16T00:56:29.211Z,0
2017-06-16T00:57:28.897Z,0
2017-06-16T00:58:29.183Z,0
2017-06-16T00:59:29.176Z,0
2017-06-16T01:00:29.162Z,0
2017-06-16T01:01:29.159Z,0
2017-06-16T01:02:29.139Z,0
2017-06-16T01:03:29.134Z,0
2017-06-16T01:04:29.120Z,0
2017-06-16T01:05:28.809Z,0
2017-06-16T01:06:29.103Z,0
2017-06-16T01:07:29.094Z,0
2017-06-16T01:08:29.081Z,0
2017-06-16T01:09:29.272Z,0
2017-06-16T01:10:28.760Z,0
2017-06-16T01:11:29.283Z,0
2017-06-16T01:12:29.038Z,0
2017-06-16T01:13:29.026Z,0
2017-06-16T01:14:29.025Z,0
2017-06-16T01:15:29.004Z,0
2017-06-16T01:16:28.996Z,0
2017-06-16T01:17:28.982Z,0
2017-06-16T01:18:28.975Z,0
2017-06-16T01:19:28.963Z,0
2017-06-16T01:20:28.956Z,0
2017-06-16T01:21:28.939Z,0
2017-06-16T01:22:28.928Z,0
2017-06-16T01:23:28.925Z,0
2017-06-16T01:24:28.908Z,0
2017-06-16T01:25:28.298Z,0
2017-06-16T01:26:28.886Z,0
2017-06-16T01:27:28.882Z,0
2017-06-16T01:28:28.866Z,0
2017-06-16T01:29:28.860Z,0
2017-06-16T01:30:28.855Z,0
2017-06-16T01:31:28.530Z,0
2017-06-16T01:32:28.217Z,0
2017-06-16T01:33:28.839Z,0
2017-06-16T01:34:28.796Z,0
2017-06-16T01:35:28.796Z,0
2017-06-16T01:36:28.480Z,0
2017-06-16T01:37:28.769Z,0
2017-06-16T01:38:28.757Z,0
2017-06-16T01:39:28.748Z,0
2017-06-16T01:40:28.744Z,0
2017-06-16T01:41:28.422Z,0
2017-06-16T01:42:28.725Z,0
2017-06-16T01:43:28.408Z,0
2017-06-16T01:44:28.702Z,0
2017-06-16T01:45:28.384Z,0
2017-06-16T01:46:28.872Z,0
2017-06-16T01:47:28.869Z,0
2017-06-16T01:48:28.653Z,0
2017-06-16T01:49:28.644Z,0
2017-06-16T01:50:28.331Z,0
2017-06-16T01:51:28.315Z,0
2017-06-16T01:52:28.610Z,0
2017-06-16T01:53:28.295Z,0
2017-06-16T01:54:28.583Z,0
2017-06-16T01:55:28.575Z,0
2017-06-16T01:56:28.562Z,0
2017-06-16T01:57:28.555Z,0
2017-06-16T01:58:28.545Z,0
2017-06-16T01:59:28.230Z,0
2017-06-16T02:00:28.518Z,0
2017-06-16T02:01:28.211Z,0
2017-06-16T02:02:28.497Z,0
2017-06-16T02:03:28.488Z,0
2017-06-16T02:04:28.176Z,0
2017-06-16T02:05:28.168Z,0
2017-06-16T02:06:28.455Z,0
2017-06-16T02:07:28.145Z,0
2017-06-16T02:08:28.135Z,0
2017-06-16T02:09:28.123Z,0
2017-06-16T02:10:28.114Z,0
2017-06-16T02:11:28.104Z,0
2017-06-16T02:12:28.097Z,0
2017-06-16T02:13:28.380Z,0
2017-06-16T02:14:28.104Z,0
2017-06-16T02:15:28.360Z,0
2017-06-16T02:16:28.353Z,0
2017-06-16T02:17:28.330Z,0
2017-06-16T02:18:28.328Z,0
2017-06-16T02:19:28.311Z,0
2017-06-16T02:20:28.323Z,0
2017-06-16T02:21:28.292Z,0
2017-06-16T02:22:28.288Z,0
2017-06-16T02:23:28.271Z,0
2017-06-16T02:24:28.258Z,0
2017-06-16T02:25:28.253Z,0
2017-06-16T02:26:28.242Z,0
2017-06-16T02:27:28.222Z,0
2017-06-16T02:28:28.218Z,0
2017-06-16T02:29:28.206Z,0
2017-06-16T02:30:28.194Z,0
2017-06-16T02:31:28.184Z,0
2017-06-16T02:32:28.168Z,0
2017-06-16T02:33:28.167Z,0
2017-06-16T02:34:28.158Z,0
2017-06-16T02:35:28.138Z,0
2017-06-16T02:36:28.138Z,0
2017-06-16T02:37:28.131Z,0
2017-06-16T02:38:28.103Z,0
2017-06-16T02:39:28.094Z,0
2017-06-16T02:40:28.085Z,0
2017-06-16T02:41:28.072Z,0
2017-06-16T02:42:28.068Z,0
2017-06-16T02:43:28.050Z,0
2017-06-16T02:44:28.041Z,0
2017-06-16T02:45:28.034Z,0
2017-06-16T02:46:28.016Z,0
2017-06-16T02:47:27.709Z,0
2017-06-16T02:48:28.005Z,0
2017-06-16T02:49:27.692Z,0
2017-06-16T02:50:27.677Z,0
2017-06-16T02:51:27.662Z,0
2017-06-16T02:52:27.948Z,0
2017-06-16T02:53:27.941Z,0
2017-06-16T02:54:27.626Z,0
2017-06-16T02:55:27.912Z,0
2017-06-16T02:56:27.902Z,0
2017-06-16T02:57:27.596Z,0
2017-06-16T02:58:27.881Z,0
2017-06-16T02:59:27.873Z,0
2017-06-16T03:00:27.861Z,0
2017-06-16T03:01:27.849Z,0
2017-06-16T03:02:27.838Z,0
2017-06-16T03:03:27.829Z,0
2017-06-16T03:04:27.817Z,0
2017-06-16T03:05:27.803Z,0
2017-06-16T03:06:27.793Z,0
2017-06-16T03:07:27.784Z,0
2017-06-16T03:08:27.470Z,0
2017-06-16T03:09:27.767Z,0
2017-06-16T03:10:27.753Z,0
2017-06-16T03:11:27.438Z,0
2017-06-16T03:12:27.728Z,0
2017-06-16T03:13:27.711Z,0
2017-06-16T03:14:27.704Z,0
2017-06-16T03:15:27.690Z,0
2017-06-16T03:16:27.686Z,0
2017-06-16T03:17:27.670Z,0
2017-06-16T03:18:27.655Z,0
2017-06-16T03:19:27.648Z,0
2017-06-16T03:20:27.641Z,0
2017-06-16T03:21:27.625Z,5
2017-06-16T03:22:27.611Z,5
2017-06-16T03:23:27.647Z,5
2017-06-16T03:24:27.590Z,5
2017-06-16T03:25:27.580Z,5
2017-06-16T03:26:27.569Z,5
2017-06-16T03:27:27.558Z,5
2017-06-16T03:28:27.550Z,5
2017-06-16T03:29:27.534Z,5
2017-06-16T03:30:27.527Z,5
2017-06-16T03:31:27.515Z,10
2017-06-16T03:32:27.510Z,10
2017-06-16T03:33:27.495Z,10
2017-06-16T03:34:27.481Z,10
2017-06-16T03:35:27.478Z,5
2017-06-16T03:36:27.461Z,5
2017-06-16T03:37:27.447Z,5
2017-06-16T03:38:27.471Z,5
2017-06-16T03:39:27.426Z,5
2017-06-16T03:40:27.418Z,15
2017-06-16T03:41:27.409Z,25
2017-06-16T03:42:27.392Z,35
2017-06-16T03:43:27.388Z,25
2017-06-16T03:44:27.369Z,25
2017-06-16T03:45:27.368Z,25
2017-06-16T03:46:27.350Z,30
2017-06-16T03:47:27.340Z,30
2017-06-16T03:48:27.025Z,30
2017-06-16T03:49:27.320Z,45
2017-06-16T03:50:27.306Z,75
2017-06-16T03:51:26.995Z,60
2017-06-16T03:52:27.283Z,45
2017-06-16T03:53:26.973Z,55
2017-06-16T03:54:26.960Z,75
2017-06-16T03:55:26.944Z,100
2017-06-16T03:56:27.233Z,85
2017-06-16T03:57:27.226Z,70
2017-06-16T03:58:27.212Z,70
2017-06-16T03:59:27.201Z,55
2017-06-16T04:00:27.190Z,50
2017-06-16T04:01:27.177Z,40
2017-06-16T04:02:27.167Z,40
2017-06-16T04:03:27.156Z,30
2017-06-16T04:04:27.143Z,30
2017-06-16T04:05:27.142Z,40
2017-06-16T04:06:26.822Z,35
2017-06-16T04:07:27.109Z,35
2017-06-16T04:08:27.098Z,40
2017-06-16T04:09:27.091Z,50
2017-06-16T04:10:27.075Z,45
2017-06-16T04:11:27.064Z,55
2017-06-16T04:12:27.048Z,30
2017-06-16T04:13:27.039Z,30
2017-06-16T04:14:26.724Z,25
2017-06-16T04:15:27.018Z,20
2017-06-16T04:16:27.004Z,20
2017-06-16T04:17:26.995Z,20
2017-06-16T04:18:26.986Z,20
2017-06-16T04:19:26.973Z,20
2017-06-16T04:20:26.960Z,25
2017-06-16T04:21:26.952Z,35
2017-06-16T04:22:26.939Z,40
2017-06-16T04:23:26.927Z,55
2017-06-16T04:24:26.915Z,60
2017-06-16T04:25:26.908Z,105
2017-06-16T04:26:26.892Z,105
2017-06-16T04:27:26.885Z,115
2017-06-16T04:28:26.869Z,105
2017-06-16T04:29:26.560Z,120
2017-06-16T04:30:26.849Z,95
2017-06-16T04:31:26.836Z,85
2017-06-16T04:32:26.834Z,100
2017-06-16T04:33:26.817Z,100
2017-06-16T04:34:26.805Z,100
2017-06-16T04:35:26.791Z,90
2017-06-16T04:36:26.782Z,95
2017-06-16T04:37:26.770Z,100
2017-06-16T04:38:26.465Z,105
2017-06-16T04:39:26.749Z,135
2017-06-16T04:40:26.735Z,165
2017-06-16T04:41:26.724Z,150
2017-06-16T04:42:26.716Z,160
2017-06-16T04:43:26.701Z,135
2017-06-16T04:44:26.693Z,125
2017-06-16T04:45:26.682Z,105
2017-06-16T04:46:26.666Z,95
2017-06-16T04:47:26.356Z,130
2017-06-16T04:48:26.645Z,125
2017-06-16T04:49:26.338Z,100
2017-06-16T04:50:26.322Z,100
2017-06-16T04:51:26.622Z,95
2017-06-16T04:52:26.299Z,115
2017-06-16T04:53:26.599Z,100
2017-06-16T04:54:26.580Z,125
2017-06-16T04:55:26.567Z,130
2017-06-16T04:56:26.254Z,165
2017-06-16T04:57:26.544Z,95
2017-06-16T04:58:26.524Z,80
2017-06-16T04:59:26.516Z,95
2017-06-16T05:00:26.510Z,115
2017-06-16T05:01:26.500Z,70
2017-06-16T05:02:26.479Z,70
2017-06-16T05:03:25.873Z,120
2017-06-16T05:04:26.461Z,110
2017-06-16T05:05:26.445Z,120
2017-06-16T05:06:26.443Z,150
2017-06-16T05:07:26.430Z,60
2017-06-16T05:08:26.411Z,60
2017-06-16T05:09:26.401Z,95
2017-06-16T05:10:26.397Z,100
2017-06-16T05:11:26.378Z,110
2017-06-16T05:12:26.367Z,130
2017-06-16T05:13:26.351Z,120
2017-06-16T05:14:26.347Z,120
2017-06-16T05:15:26.030Z,120
2017-06-16T05:16:26.320Z,150
2017-06-16T05:17:26.317Z,85
2017-06-16T05:18:26.296Z,50
2017-06-16T05:19:25.983Z,55
2017-06-16T05:20:25.984Z,65
2017-06-16T05:21:26.270Z,70
2017-06-16T05:22:26.251Z,95
2017-06-16T05:23:26.247Z,110
2017-06-16T05:24:26.235Z,205
2017-06-16T05:25:25.918Z,180
2017-06-16T05:26:26.204Z,130
2017-06-16T05:27:26.192Z,145
2017-06-16T05:28:26.184Z,145
2017-06-16T05:29:26.166Z,170
2017-06-16T05:30:26.166Z,255
2017-06-16T05:31:26.149Z,240
2017-06-16T05:32:26.141Z,265
2017-06-16T05:33:26.127Z,270
2017-06-16T05:34:26.120Z,320
2017-06-16T05:35:26.103Z,410
2017-06-16T05:36:26.087Z,475
2017-06-16T05:37:26.078Z,535
2017-06-16T05:38:26.065Z,600
2017-06-16T05:39:26.056Z,370
2017-06-16T05:40:26.036Z,325
2017-06-16T05:41:26.036Z,350
2017-06-16T05:42:26.011Z,425
2017-06-16T05:43:26.007Z,410
2017-06-16T05:44:25.992Z,425
2017-06-16T05:45:25.997Z,375
2017-06-16T05:46:25.967Z,480
2017-06-16T05:47:25.664Z,460
2017-06-16T05:48:25.939Z,510
2017-06-16T05:49:25.935Z,420
2017-06-16T05:50:25.925Z,510
2017-06-16T05:51:25.920Z,550
2017-06-16T05:52:25.898Z,465
2017-06-16T05:53:25.885Z,385
2017-06-16T05:54:25.876Z,380
2017-06-16T05:55:25.858Z,370
2017-06-16T05:56:25.852Z,320
2017-06-16T05:57:25.837Z,360
2017-06-16T05:58:25.865Z,350
2017-06-16T05:59:25.507Z,400
2017-06-16T06:00:25.804Z,475
2017-06-16T06:01:25.488Z,470
2017-06-16T06:02:25.474Z,370
2017-06-16T06:03:25.161Z,265
2017-06-16T06:04:25.754Z,255
2017-06-16T06:05:25.435Z,225
2017-06-16T06:06:25.428Z,165
2017-06-16T06:07:25.413Z,145
2017-06-16T06:08:25.708Z,175
2017-06-16T06:09:25.689Z,195
2017-06-16T06:10:25.676Z,150
2017-06-16T06:11:25.669Z,105
2017-06-16T06:12:25.663Z,115
2017-06-16T06:13:25.039Z,110
2017-06-16T06:14:25.331Z,95
2017-06-16T06:15:25.617Z,80
2017-06-16T06:16:25.310Z,135
2017-06-16T06:17:25.590Z,160
2017-06-16T06:18:25.278Z,120
2017-06-16T06:19:25.571Z,80
2017-06-16T06:20:25.249Z,90
2017-06-16T06:21:25.243Z,85
2017-06-16T06:22:25.533Z,95
2017-06-16T06:23:25.526Z,85
2017-06-16T06:24:25.205Z,80
2017-06-16T06:25:25.192Z,80
2017-06-16T06:26:25.482Z,95
2017-06-16T06:27:25.474Z,120
2017-06-16T06:28:25.456Z,125
2017-06-16T06:29:25.447Z,180
2017-06-16T06:30:25.434Z,325
2017-06-16T06:31:25.121Z,520
2017-06-16T06:32:25.415Z,595
2017-06-16T06:33:25.404Z,700
2017-06-16T06:34:25.388Z,565
2017-06-16T06:35:25.374Z,635
2017-06-16T06:36:25.358Z,460
2017-06-16T06:37:25.352Z,420
2017-06-16T06:38:25.339Z,465
2017-06-16T06:39:25.326Z,575
2017-06-16T06:40:25.314Z,505
2017-06-16T06:41:25.296Z,365
2017-06-16T06:42:25.291Z,280
2017-06-16T06:43:24.973Z,315
2017-06-16T06:44:25.266Z,355
2017-06-16T06:45:25.255Z,375
2017-06-16T06:46:25.233Z,360
2017-06-16T06:47:25.228Z,360
2017-06-16T06:48:25.213Z,390
2017-06-16T06:49:25.199Z,355
2017-06-16T06:50:25.190Z,395
2017-06-16T06:51:25.172Z,460
2017-06-16T06:52:24.859Z,325
2017-06-16T06:53:25.152Z,415
2017-06-16T06:54:25.141Z,540
2017-06-16T06:55:25.125Z,440
2017-06-16T06:56:25.116Z,305
2017-06-16T06:57:24.802Z,330
2017-06-16T06:58:25.089Z,335
2017-06-16T06:59:25.082Z,520
2017-06-16T07:00:25.067Z,440
2017-06-16T07:01:25.059Z,485
2017-06-16T07:02:24.740Z,465
2017-06-16T07:03:24.726Z,960
2017-06-16T07:04:25.016Z,385
2017-06-16T07:05:25.002Z,330
2017-06-16T07:06:24.999Z,275
2017-06-16T07:07:24.979Z,245
2017-06-16T07:08:24.968Z,210
2017-06-16T07:09:24.956Z,255
2017-06-16T07:10:24.942Z,435
2017-06-16T07:11:24.936Z,445
2017-06-16T07:12:24.918Z,385
2017-06-16T07:13:24.911Z,415
2017-06-16T07:14:24.893Z,485
2017-06-16T07:15:24.883Z,530
2017-06-16T07:16:24.609Z,545
2017-06-16T07:17:24.554Z,420
2017-06-16T07:18:24.852Z,375
2017-06-16T07:19:24.235Z,420
2017-06-16T07:20:24.830Z,565
2017-06-16T07:21:24.807Z,500
2017-06-16T07:22:24.499Z,455
2017-06-16T07:23:24.783Z,495
2017-06-16T07:24:24.772Z,505
2017-06-16T07:25:24.492Z,445
2017-06-16T07:26:24.448Z,350
2017-06-16T07:27:24.739Z,360
2017-06-16T07:28:24.719Z,305
2017-06-16T07:29:24.717Z,420
2017-06-16T07:30:24.700Z,490
2017-06-16T07:31:24.690Z,730
2017-06-16T07:32:24.679Z,730
2017-06-16T07:33:24.356Z,490
2017-06-16T07:34:24.342Z,310
2017-06-16T07:35:24.337Z,330
2017-06-16T07:36:24.326Z,295
2017-06-16T07:37:24.340Z,265
2017-06-16T07:38:24.599Z,275
2017-06-16T07:39:24.584Z,260
2017-06-16T07:40:24.275Z,290
2017-06-16T07:41:24.556Z,170
2017-06-16T07:42:24.248Z,165
2017-06-16T07:43:24.685Z,245
2017-06-16T07:44:24.526Z,235
2017-06-16T07:45:24.210Z,315
2017-06-16T07:46:24.494Z,385
2017-06-16T07:47:24.486Z,230
2017-06-16T07:48:24.465Z,240
2017-06-16T07:49:24.164Z,290
2017-06-16T07:50:23.844Z,230
2017-06-16T07:51:24.135Z,205
2017-06-16T07:52:24.418Z,250
2017-06-16T07:53:24.410Z,175
2017-06-16T07:54:24.397Z,155
2017-06-16T07:55:24.081Z,165
2017-06-16T07:56:24.369Z,180
2017-06-16T07:57:24.364Z,115
2017-06-16T07:58:24.346Z,100
2017-06-16T07:59:23.429Z,90
2017-06-16T08:00:24.018Z,205
2017-06-16T08:01:24.306Z,355
2017-06-16T08:02:24.301Z,245
2017-06-16T08:03:23.995Z,255
2017-06-16T08:04:24.275Z,295
2017-06-16T08:05:23.956Z,255
2017-06-16T08:06:23.641Z,230
2017-06-16T08:07:23.634Z,205
2017-06-16T08:08:24.225Z,220
2017-06-16T08:09:23.908Z,285
2017-06-16T08:10:23.917Z,445
2017-06-16T08:11:24.183Z,395
2017-06-16T08:12:24.176Z,225
2017-06-16T08:13:24.158Z,320
2017-06-16T08:14:24.146Z,285
2017-06-16T08:15:24.134Z,275
2017-06-16T08:16:23.817Z,270
2017-06-16T08:17:24.108Z,190
2017-06-16T08:18:24.090Z,155
2017-06-16T08:19:24.085Z,170
2017-06-16T08:20:23.768Z,260
2017-06-16T08:21:23.761Z,490
2017-06-16T08:22:24.046Z,240
2017-06-16T08:23:23.734Z,190
2017-06-16T08:24:23.722Z,230
2017-06-16T08:25:24.009Z,230
2017-06-16T08:26:23.699Z,180
2017-06-16T08:27:23.991Z,165
2017-06-16T08:28:23.979Z,160
2017-06-16T08:29:23.661Z,135
2017-06-16T08:30:23.667Z,200
2017-06-16T08:31:23.644Z,240
2017-06-16T08:32:23.630Z,195
2017-06-16T08:33:23.939Z,185
2017-06-16T08:34:23.905Z,180
2017-06-16T08:35:23.591Z,180
2017-06-16T08:36:23.597Z,155
2017-06-16T08:37:23.568Z,145
2017-06-16T08:38:23.565Z,140
2017-06-16T08:39:23.541Z,135
2017-06-16T08:40:23.549Z,135
2017-06-16T08:41:23.821Z,205
2017-06-16T08:42:23.510Z,205
2017-06-16T08:43:23.489Z,205
2017-06-16T08:44:23.785Z,290
2017-06-16T08:45:23.779Z,325
2017-06-16T08:46:23.754Z,295
2017-06-16T08:47:23.443Z,260
2017-06-16T08:48:23.726Z,450
2017-06-16T08:49:23.419Z,455
2017-06-16T08:50:23.707Z,415
2017-06-16T08:51:23.707Z,460
2017-06-16T08:52:23.687Z,395
2017-06-16T08:53:23.671Z,395
2017-06-16T08:54:23.353Z,405
2017-06-16T08:55:23.668Z,315
2017-06-16T08:56:23.634Z,355
2017-06-16T08:57:23.312Z,520
2017-06-16T08:58:23.302Z,1105
2017-06-16T08:59:23.285Z,1050
2017-06-16T09:00:23.277Z,640
2017-06-16T09:01:23.584Z,635
2017-06-16T09:02:23.571Z,945
2017-06-16T09:03:23.553Z,825
2017-06-16T09:04:23.230Z,635
2017-06-16T09:05:23.216Z,560
2017-06-16T09:06:23.507Z,445
2017-06-16T09:07:23.509Z,550
2017-06-16T09:08:23.505Z,520
2017-06-16T09:09:23.493Z,520
2017-06-16T09:10:23.500Z,570
2017-06-16T09:11:23.442Z,1000
2017-06-16T09:12:23.123Z,950
2017-06-16T09:13:23.422Z,830
2017-06-16T09:14:23.406Z,1085
2017-06-16T09:15:23.391Z,795
2017-06-16T09:16:23.375Z,720
2017-06-16T09:17:23.071Z,1665
2017-06-16T09:18:23.351Z,2385
2017-06-16T09:19:23.375Z,1410
2017-06-16T09:20:23.331Z,1235
2017-06-16T09:21:23.317Z,1035
2017-06-16T09:22:23.305Z,1090
2017-06-16T09:23:23.291Z,1080
2017-06-16T09:24:23.278Z,1110
2017-06-16T09:25:23.267Z,835
2017-06-16T09:26:23.254Z,900
2017-06-16T09:27:23.245Z,895
2017-06-16T09:28:23.232Z,955
2017-06-16T09:29:22.912Z,965
2017-06-16T09:30:23.206Z,1715
2017-06-16T09:31:23.193Z,1420
2017-06-16T09:32:23.185Z,770
2017-06-16T09:33:23.166Z,580
2017-06-16T09:34:23.153Z,415
2017-06-16T09:35:23.141Z,410
2017-06-16T09:36:23.128Z,445
2017-06-16T09:37:23.116Z,355
2017-06-16T09:38:22.502Z,470
2017-06-16T09:39:23.096Z,585
2017-06-16T09:40:22.782Z,510
2017-06-16T09:41:23.067Z,420
2017-06-16T09:42:23.058Z,465
2017-06-16T09:43:23.045Z,600
2017-06-16T09:44:23.032Z,395
2017-06-16T09:45:22.717Z,190
2017-06-16T09:46:22.710Z,170
2017-06-16T09:47:22.690Z,175
2017-06-16T09:48:22.688Z,185
2017-06-16T09:49:22.968Z,190
2017-06-16T09:50:22.965Z,235
2017-06-16T09:51:22.651Z,235
2017-06-16T09:52:22.641Z,240
2017-06-16T09:53:22.920Z,215
2017-06-16T09:54:22.608Z,175
2017-06-16T09:55:22.592Z,175
2017-06-16T09:56:22.884Z,170
2017-06-16T09:57:22.583Z,165
2017-06-16T09:58:22.859Z,180
2017-06-16T09:59:22.545Z,190
2017-06-16T10:00:22.231Z,200
2017-06-16T10:01:22.823Z,245
2017-06-16T10:02:22.817Z,265
2017-06-16T10:03:22.795Z,245
2017-06-16T10:04:22.787Z,240
2017-06-16T10:05:22.777Z,445
2017-06-16T10:06:22.768Z,415
2017-06-16T10:07:22.758Z,365
2017-06-16T10:08:22.740Z,350
2017-06-16T10:09:22.727Z,315
2017-06-16T10:10:22.713Z,285
2017-06-16T10:11:22.700Z,280
2017-06-16T10:12:22.688Z,300
2017-06-16T10:13:22.675Z,395
2017-06-16T10:14:22.068Z,470
2017-06-16T10:15:22.656Z,690
2017-06-16T10:16:22.639Z,1045
2017-06-16T10:17:22.629Z,1525
2017-06-16T10:18:22.623Z,1385
2017-06-16T10:19:22.606Z,1775
2017-06-16T10:20:22.596Z,2090
2017-06-16T10:21:22.579Z,1715
2017-06-16T10:22:22.576Z,2115
2017-06-16T10:23:22.551Z,1985
2017-06-16T10:24:22.546Z,2150
2017-06-16T10:25:22.533Z,2080
2017-06-16T10:26:22.517Z,3225
2017-06-16T10:27:22.504Z,3630
2017-06-16T10:28:22.498Z,4570
2017-06-16T10:29:22.172Z,3040
2017-06-16T10:30:22.464Z,1705
2017-06-16T10:31:22.450Z,1535
2017-06-16T10:32:22.445Z,1850
2017-06-16T10:33:22.432Z,2230
2017-06-16T10:34:22.417Z,1920
2017-06-16T10:35:22.401Z,1580
2017-06-16T10:36:22.088Z,1315
2017-06-16T10:37:22.381Z,1415
2017-06-16T10:38:22.363Z,2040
2017-06-16T10:39:22.051Z,1055
2017-06-16T10:40:22.340Z,920
2017-06-16T10:41:22.327Z,985
2017-06-16T10:42:21.720Z,815
2017-06-16T10:43:22.297Z,745
2017-06-16T10:44:22.289Z,465
2017-06-16T10:45:21.977Z,440
2017-06-16T10:46:21.970Z,335
2017-06-16T10:47:22.255Z,435
2017-06-16T10:48:21.937Z,515
2017-06-16T10:49:22.230Z,490
2017-06-16T10:50:22.223Z,685
2017-06-16T10:51:22.201Z,715
2017-06-16T10:52:22.194Z,840
2017-06-16T10:53:21.880Z,695
2017-06-16T10:54:22.166Z,530
2017-06-16T10:55:22.153Z,575
2017-06-16T10:56:21.843Z,610
2017-06-16T10:57:21.829Z,690
2017-06-16T10:58:22.121Z,550
2017-06-16T10:59:22.106Z,555
2017-06-16T11:00:22.096Z,560
2017-06-16T11:01:21.783Z,560
2017-06-16T11:02:21.764Z,420
2017-06-16T11:03:22.060Z,465
2017-06-16T11:04:22.042Z,445
2017-06-16T11:05:21.741Z,455
2017-06-16T11:06:21.718Z,595
2017-06-16T11:07:21.711Z,585
2017-06-16T11:08:21.699Z,500
2017-06-16T11:09:21.682Z,345
2017-06-16T11:10:21.971Z,500
2017-06-16T11:11:21.961Z,365
2017-06-16T11:12:21.944Z,405
2017-06-16T11:13:21.941Z,460
2017-06-16T11:14:21.926Z,590
2017-06-16T11:15:21.917Z,460
2017-06-16T11:16:21.906Z,475
2017-06-16T11:17:21.888Z,410
2017-06-16T11:18:21.887Z,460
2017-06-16T11:19:21.865Z,615
2017-06-16T11:20:21.854Z,635
2017-06-16T11:21:21.853Z,700
2017-06-16T11:22:21.834Z,715
2017-06-16T11:23:21.821Z,500
2017-06-16T11:24:21.807Z,480
2017-06-16T11:25:21.797Z,425
2017-06-16T11:26:21.478Z,410
2017-06-16T11:27:21.467Z,595
2017-06-16T11:28:21.761Z,440
2017-06-16T11:29:21.738Z,650
2017-06-16T11:30:21.772Z,1335
2017-06-16T11:31:21.718Z,1070
2017-06-16T11:32:21.410Z,1255
2017-06-16T11:33:21.697Z,1285
2017-06-16T11:34:21.687Z,1170
2017-06-16T11:35:21.676Z,920
2017-06-16T11:36:21.660Z,1370
2017-06-16T11:37:21.363Z,2035
2017-06-16T11:38:21.636Z,2075
2017-06-16T11:39:21.663Z,1325
2017-06-16T11:40:21.622Z,2065
2017-06-16T11:41:21.619Z,2070
2017-06-16T11:42:21.591Z,2365
2017-06-16T11:43:21.576Z,1770
2017-06-16T11:44:21.570Z,1385
2017-06-16T11:45:21.557Z,1325
2017-06-16T11:46:21.542Z,1305
2017-06-16T11:47:21.228Z,1260
2017-06-16T11:48:21.515Z,1055
2017-06-16T11:49:21.507Z,1125
2017-06-16T11:50:21.498Z,1095
2017-06-16T11:51:21.185Z,1030
2017-06-16T11:52:21.481Z,1235
2017-06-16T11:53:21.472Z,1280
2017-06-16T11:54:21.147Z,1265
2017-06-16T11:55:21.436Z,1115
2017-06-16T11:56:21.422Z,1135
2017-06-16T11:57:21.120Z,1380
2017-06-16T11:58:21.113Z,1150
2017-06-16T11:59:21.388Z,690
2017-06-16T12:00:21.379Z,755
2017-06-16T12:01:21.383Z,665
2017-06-16T12:02:21.355Z,925
2017-06-16T12:03:21.361Z,740
2017-06-16T12:04:21.038Z,1470
2017-06-16T12:05:21.018Z,1535
2017-06-16T12:06:21.311Z,1055
2017-06-16T12:07:21.302Z,1025
2017-06-16T12:08:21.299Z,1025
2017-06-16T12:09:20.986Z,930
2017-06-16T12:10:21.255Z,1155
2017-06-16T12:11:20.943Z,1325
2017-06-16T12:12:21.238Z,1745
2017-06-16T12:13:20.963Z,1595
2017-06-16T12:14:21.210Z,2565
2017-06-16T12:15:21.238Z,2265
2017-06-16T12:16:21.191Z,2095
2017-06-16T12:17:21.183Z,850
2017-06-16T12:18:20.859Z,1495
2017-06-16T12:19:20.850Z,1265
2017-06-16T12:20:21.155Z,1380
2017-06-16T12:21:21.125Z,2855
2017-06-16T12:22:21.125Z,2135
2017-06-16T12:23:21.113Z,1870
2017-06-16T12:24:21.088Z,1625
2017-06-16T12:25:21.094Z,1070
2017-06-16T12:26:21.065Z,1130
2017-06-16T12:27:21.052Z,1255
2017-06-16T12:28:21.075Z,1400
2017-06-16T12:29:21.054Z,1965
2017-06-16T12:30:20.717Z,1280
2017-06-16T12:31:21.210Z,1190
2017-06-16T12:32:21.014Z,2050
2017-06-16T12:33:21.001Z,1815
2017-06-16T12:34:20.988Z,2275
2017-06-16T12:35:20.965Z,1955
2017-06-16T12:36:20.949Z,2470
2017-06-16T12:37:21.137Z,975
2017-06-16T12:38:20.924Z,790
2017-06-16T12:39:20.908Z,655
2017-06-16T12:40:20.934Z,1025
2017-06-16T12:41:20.888Z,1185
2017-06-16T12:42:20.868Z,715
2017-06-16T12:43:20.860Z,790
2017-06-16T12:44:20.847Z,800
2017-06-16T12:45:20.843Z,745
2017-06-16T12:46:20.828Z,735
2017-06-16T12:47:20.814Z,610
2017-06-16T12:48:20.507Z,545
2017-06-16T12:49:20.792Z,630
2017-06-16T12:50:20.783Z,915
2017-06-16T12:51:20.774Z,435
2017-06-16T12:52:20.760Z,365
2017-06-16T12:53:20.745Z,535
2017-06-16T12:54:20.737Z,565
2017-06-16T12:55:20.723Z,405
2017-06-16T12:56:20.417Z,335
2017-06-16T12:57:20.703Z,380
2017-06-16T12:58:20.737Z,810
2017-06-16T12:59:20.680Z,610
2017-06-16T13:00:20.664Z,425
2017-06-16T13:01:20.658Z,410
2017-06-16T13:02:20.644Z,345
2017-06-16T13:03:34.019Z,335
2017-06-16T13:04:20.617Z,335
2017-06-16T13:05:20.308Z,240
2017-06-16T13:06:20.600Z,255
2017-06-16T13:07:20.793Z,245
2017-06-16T13:08:20.572Z,195
2017-06-16T13:09:20.266Z,195
2017-06-16T13:10:20.250Z,195
2017-06-16T13:11:20.238Z,250
2017-06-16T13:12:20.530Z,240
2017-06-16T13:13:20.517Z,215
2017-06-16T13:14:20.510Z,210
2017-06-16T13:15:20.496Z,230
2017-06-16T13:16:20.481Z,285
2017-06-16T13:17:34.103Z,300
2017-06-16T13:18:20.669Z,465
2017-06-16T13:19:20.149Z,475
2017-06-16T13:20:20.437Z,425
2017-06-16T13:21:20.426Z,605
2017-06-16T13:22:20.415Z,595
2017-06-16T13:23:20.407Z,960
2017-06-16T13:24:20.392Z,1145
2017-06-16T13:25:20.072Z,1040
2017-06-16T13:26:20.367Z,1130
2017-06-16T13:27:20.358Z,995
2017-06-16T13:28:20.363Z,780
2017-06-16T13:29:20.331Z,670
2017-06-16T13:30:20.330Z,740
2017-06-16T13:31:20.319Z,960
2017-06-16T13:32:20.300Z,1015
2017-06-16T13:33:20.283Z,1105
2017-06-16T13:34:19.974Z,865
2017-06-16T13:35:20.260Z,1205
2017-06-16T13:36:20.249Z,1140
2017-06-16T13:37:20.243Z,1240
2017-06-16T13:38:20.226Z,1930
2017-06-16T13:39:33.602Z,1670
2017-06-16T13:40:20.129Z,1200
2017-06-16T13:41:20.201Z,1460
2017-06-16T13:42:20.180Z,1995
2017-06-16T13:43:20.382Z,1955
2017-06-16T13:44:33.544Z,2220
2017-06-16T13:45:33.541Z,1025
2017-06-16T13:46:20.143Z,790
2017-06-16T13:47:20.125Z,760
2017-06-16T13:48:20.115Z,1115
2017-06-16T13:49:20.103Z,870
2017-06-16T13:50:20.089Z,790
2017-06-16T13:51:20.085Z,505
2017-06-16T13:52:20.081Z,435
2017-06-16T13:53:20.059Z,545
2017-06-16T13:54:19.744Z,575
2017-06-16T13:55:20.032Z,645
2017-06-16T13:56:20.020Z,710
2017-06-16T13:57:19.715Z,1050
2017-06-16T13:58:19.705Z,1080
2017-06-16T13:59:19.987Z,1155